sensor_id;sensor_type;location;lat;lon;timestamp;temperature;humidity
50606;DHT22;36557;53.572;10.170;2023-09-19T00:02:01;16.50;99.90
50606;DHT22;36557;53.572;10.170;2023-09-19T00:04:33;16.50;99.90
50606;DHT22;36557;53.572;10.170;2023-09-19T00:06:58;16.50;99.90
50606;DHT22;36557;53.572;10.170;2023-09-19T00:09:24;16.60;99.90
50606;DHT22;36557;53.572;10.170;2023-09-19T00:11:52;16.60;99.90
50606;DHT22;36557;53.572;10.170;2023-09-19T00:14:18;16.70;99.90
50606;DHT22;36557;53.572;10.170;2023-09-19T00:16:44;16.70;99.90
50606;DHT22;36557;53.572;10.170;2023-09-19T00:19:12;16.60;99.90
50606;DHT22;36557;53.572;10.170;2023-09-19T00:21:39;16.60;99.90
50606;DHT22;36557;53.572;10.170;2023-09-19T00:24:06;16.60;99.90
50606;DHT22;36557;53.572;10.170;2023-09-19T00:26:32;16.60;99.90
50606;DHT22;36557;53.572;10.170;2023-09-19T00:28:59;16.60;99.90
50606;DHT22;36557;53.572;10.170;2023-09-19T00:31:30;17.70;99.90
50606;DHT22;36557;53.572;10.170;2023-09-19T04:14:12;15.50;99.90
50606;DHT22;36557;53.572;10.170;2023-09-19T04:16:38;15.50;99.90
50606;DHT22;36557;53.572;10.170;2023-09-19T04:19:04;15.40;99.90
50606;DHT22;36557;53.572;10.170;2023-09-19T04:21:30;15.30;99.90
50606;DHT22;36557;53.572;10.170;2023-09-19T04:23:56;15.30;99.90
50606;DHT22;36557;53.572;10.170;2023-09-19T04:26:21;15.30;99.90
50606;DHT22;36557;53.572;10.170;2023-09-19T04:28:47;15.10;99.90
50606;DHT22;36557;53.572;10.170;2023-09-19T04:31:13;15.10;99.90
50606;DHT22;36557;53.572;10.170;2023-09-19T04:33:39;15.10;99.90
50606;DHT22;36557;53.572;10.170;2023-09-19T04:36:04;15.00;99.90
50606;DHT22;36557;53.572;10.170;2023-09-19T04:38:33;15.00;99.90
50606;DHT22;36557;53.572;10.170;2023-09-19T04:40:58;15.00;99.90
50606;DHT22;36557;53.572;10.170;2023-09-19T04:43:24;14.80;99.90
50606;DHT22;36557;53.572;10.170;2023-09-19T04:45:50;14.90;99.90
50606;DHT22;36557;53.572;10.170;2023-09-19T04:48:16;14.90;99.90
50606;DHT22;36557;53.572;10.170;2023-09-19T04:50:41;14.80;99.90
50606;DHT22;36557;53.572;10.170;2023-09-19T04:53:08;14.80;99.90
50606;DHT22;36557;53.572;10.170;2023-09-19T04:55:33;14.80;99.90
50606;DHT22;36557;53.572;10.170;2023-09-19T04:57:59;14.80;99.90
50606;DHT22;36557;53.572;10.170;2023-09-19T05:00:25;14.80;99.90
50606;DHT22;36557;53.572;10.170;2023-09-19T05:02:54;14.70;99.90
50606;DHT22;36557;53.572;10.170;2023-09-19T05:05:21;14.70;99.90
50606;DHT22;36557;53.572;10.170;2023-09-19T05:07:48;14.70;99.90
50606;DHT22;36557;53.572;10.170;2023-09-19T05:10:13;14.70;99.90
50606;DHT22;36557;53.572;10.170;2023-09-19T05:12:39;14.70;99.90
50606;DHT22;36557;53.572;10.170;2023-09-19T05:15:06;14.60;99.90
50606;DHT22;36557;53.572;10.170;2023-09-19T05:17:35;14.60;99.90
50606;DHT22;36557;53.572;10.170;2023-09-19T05:20:01;14.70;99.90
50606;DHT22;36557;53.572;10.170;2023-09-19T05:22:40;14.70;99.90
50606;DHT22;36557;53.572;10.170;2023-09-19T05:25:06;14.70;99.90
50606;DHT22;36557;53.572;10.170;2023-09-19T05:27:32;14.70;99.90
50606;DHT22;36557;53.572;10.170;2023-09-19T05:29:59;14.60;99.90
50606;DHT22;36557;53.572;10.170;2023-09-19T05:32:24;14.50;99.90
50606;DHT22;36557;53.572;10.170;2023-09-19T05:34:50;14.50;99.90
50606;DHT22;36557;53.572;10.170;2023-09-19T05:37:19;14.50;99.90
50606;DHT22;36557;53.572;10.170;2023-09-19T05:39:44;14.50;99.90
50606;DHT22;36557;53.572;10.170;2023-09-19T05:42:10;14.50;99.90
50606;DHT22;36557;53.572;10.170;2023-09-19T05:44:35;14.50;99.90
50606;DHT22;36557;53.572;10.170;2023-09-19T05:47:01;14.50;99.90
50606;DHT22;36557;53.572;10.170;2023-09-19T05:49:27;14.60;99.90
50606;DHT22;36557;53.572;10.170;2023-09-19T05:51:53;14.60;99.90
50606;DHT22;36557;53.572;10.170;2023-09-19T05:54:20;14.70;99.90
50606;DHT22;36557;53.572;10.170;2023-09-19T05:56:46;14.70;99.90
50606;DHT22;36557;53.572;10.170;2023-09-19T05:59:19;14.70;99.90
50606;DHT22;36557;53.572;10.170;2023-09-19T06:01:44;14.80;99.90
50606;DHT22;36557;53.572;10.170;2023-09-19T06:04:10;14.80;99.90
50606;DHT22;36557;53.572;10.170;2023-09-19T06:06:35;14.80;99.90
50606;DHT22;36557;53.572;10.170;2023-09-19T06:09:04;14.90;99.90
50606;DHT22;36557;53.572;10.170;2023-09-19T06:11:31;14.90;99.90
50606;DHT22;36557;53.572;10.170;2023-09-19T06:14:00;15.10;99.90
50606;DHT22;36557;53.572;10.170;2023-09-19T06:16:30;15.20;99.90
50606;DHT22;36557;53.572;10.170;2023-09-19T06:18:57;15.30;99.90
50606;DHT22;36557;53.572;10.170;2023-09-19T06:21:24;15.30;99.90
50606;DHT22;36557;53.572;10.170;2023-09-19T06:23:49;15.50;99.90
50606;DHT22;36557;53.572;10.170;2023-09-19T06:26:15;15.60;99.90
50606;DHT22;36557;53.572;10.170;2023-09-19T06:28:40;15.70;99.90
50606;DHT22;36557;53.572;10.170;2023-09-19T06:31:07;15.70;99.90
50606;DHT22;36557;53.572;10.170;2023-09-19T06:33:35;15.70;99.90
50606;DHT22;36557;53.572;10.170;2023-09-19T06:36:04;15.70;99.90
50606;DHT22;36557;53.572;10.170;2023-09-19T06:38:30;15.70;99.90
50606;DHT22;36557;53.572;10.170;2023-09-19T06:40:56;15.70;99.90
50606;DHT22;36557;53.572;10.170;2023-09-19T06:43:22;15.70;99.90
50606;DHT22;36557;53.572;10.170;2023-09-19T06:45:49;15.80;99.90
50606;DHT22;36557;53.572;10.170;2023-09-19T06:48:15;15.70;99.90
50606;DHT22;36557;53.572;10.170;2023-09-19T06:50:41;15.70;99.90
50606;DHT22;36557;53.572;10.170;2023-09-19T06:53:09;15.80;99.90
50606;DHT22;36557;53.572;10.170;2023-09-19T06:55:35;15.80;99.90
50606;DHT22;36557;53.572;10.170;2023-09-19T06:58:02;15.90;99.90
50606;DHT22;36557;53.572;10.170;2023-09-19T07:00:27;16.00;99.90
50606;DHT22;36557;53.572;10.170;2023-09-19T07:05:22;15.90;99.90
50606;DHT22;36557;53.572;10.170;2023-09-19T07:07:48;16.00;99.90
50606;DHT22;36557;53.572;10.170;2023-09-19T07:10:13;16.00;99.90
50606;DHT22;36557;53.572;10.170;2023-09-19T07:12:39;16.10;99.90
50606;DHT22;36557;53.572;10.170;2023-09-19T07:15:07;16.20;99.90
50606;DHT22;36557;53.572;10.170;2023-09-19T07:17:32;16.20;99.90
50606;DHT22;36557;53.572;10.170;2023-09-19T07:19:58;16.30;99.90
50606;DHT22;36557;53.572;10.170;2023-09-19T07:22:26;16.30;99.90
50606;DHT22;36557;53.572;10.170;2023-09-19T07:24:52;16.30;99.90
50606;DHT22;36557;53.572;10.170;2023-09-19T07:27:18;16.30;99.90
50606;DHT22;36557;53.572;10.170;2023-09-19T07:29:43;16.40;99.90
50606;DHT22;36557;53.572;10.170;2023-09-19T07:32:10;16.50;99.90
50606;DHT22;36557;53.572;10.170;2023-09-19T07:34:37;16.40;99.90
50606;DHT22;36557;53.572;10.170;2023-09-19T07:37:06;16.50;99.90
50606;DHT22;36557;53.572;10.170;2023-09-19T07:39:31;16.50;99.90
50606;DHT22;36557;53.572;10.170;2023-09-19T07:41:57;16.40;99.90
50606;DHT22;36557;53.572;10.170;2023-09-19T07:44:23;16.40;99.90
50606;DHT22;36557;53.572;10.170;2023-09-19T07:46:51;16.50;99.90
50606;DHT22;36557;53.572;10.170;2023-09-19T07:49:17;16.60;99.90
50606;DHT22;36557;53.572;10.170;2023-09-19T07:51:43;16.70;99.90
50606;DHT22;36557;53.572;10.170;2023-09-19T07:54:12;16.50;99.90
50606;DHT22;36557;53.572;10.170;2023-09-19T07:56:38;16.60;99.90
50606;DHT22;36557;53.572;10.170;2023-09-19T07:59:04;16.50;99.90
50606;DHT22;36557;53.572;10.170;2023-09-19T08:01:29;16.30;99.90
50606;DHT22;36557;53.572;10.170;2023-09-19T08:03:55;16.10;99.90
50606;DHT22;36557;53.572;10.170;2023-09-19T08:06:21;16.10;99.90
50606;DHT22;36557;53.572;10.170;2023-09-19T08:08:47;16.00;99.90
50606;DHT22;36557;53.572;10.170;2023-09-19T08:11:15;15.90;99.90
50606;DHT22;36557;53.572;10.170;2023-09-19T08:13:46;15.90;99.90
50606;DHT22;36557;53.572;10.170;2023-09-19T08:16:15;16.00;99.90
50606;DHT22;36557;53.572;10.170;2023-09-19T08:18:41;16.10;99.90
50606;DHT22;36557;53.572;10.170;2023-09-19T08:21:07;16.10;99.90
50606;DHT22;36557;53.572;10.170;2023-09-19T08:23:36;16.10;99.90
50606;DHT22;36557;53.572;10.170;2023-09-19T08:26:03;16.00;99.90
50606;DHT22;36557;53.572;10.170;2023-09-19T08:28:32;16.20;99.90
50606;DHT22;36557;53.572;10.170;2023-09-19T08:31:02;16.30;99.90
50606;DHT22;36557;53.572;10.170;2023-09-19T08:33:33;16.40;99.90
50606;DHT22;36557;53.572;10.170;2023-09-19T08:35:59;16.50;99.90
50606;DHT22;36557;53.572;10.170;2023-09-19T08:38:25;16.50;99.90
50606;DHT22;36557;53.572;10.170;2023-09-19T08:40:57;16.50;99.90
50606;DHT22;36557;53.572;10.170;2023-09-19T08:43:25;16.70;99.90
50606;DHT22;36557;53.572;10.170;2023-09-19T08:48:32;16.70;99.90
50606;DHT22;36557;53.572;10.170;2023-09-19T08:51:03;16.70;99.90
50606;DHT22;36557;53.572;10.170;2023-09-19T08:56:17;16.70;99.90
50606;DHT22;36557;53.572;10.170;2023-09-19T08:58:51;16.70;99.90
50606;DHT22;36557;53.572;10.170;2023-09-19T09:01:19;16.70;99.90
50606;DHT22;36557;53.572;10.170;2023-09-19T09:03:53;16.80;99.90
50606;DHT22;36557;53.572;10.170;2023-09-19T09:06:20;16.80;99.90
50606;DHT22;36557;53.572;10.170;2023-09-19T09:08:46;16.80;99.90
50606;DHT22;36557;53.572;10.170;2023-09-19T09:11:14;16.90;99.90
50606;DHT22;36557;53.572;10.170;2023-09-19T09:13:40;17.00;99.90
50606;DHT22;36557;53.572;10.170;2023-09-19T09:16:07;17.00;99.90
50606;DHT22;36557;53.572;10.170;2023-09-19T09:18:35;17.10;99.90
50606;DHT22;36557;53.572;10.170;2023-09-19T09:21:01;17.20;99.90
50606;DHT22;36557;53.572;10.170;2023-09-19T09:23:27;17.30;99.90
50606;DHT22;36557;53.572;10.170;2023-09-19T09:25:58;17.40;99.90
50606;DHT22;36557;53.572;10.170;2023-09-19T09:28:34;17.40;99.90
50606;DHT22;36557;53.572;10.170;2023-09-19T09:31:04;17.40;99.90
50606;DHT22;36557;53.572;10.170;2023-09-19T09:33:36;17.30;99.90
50606;DHT22;36557;53.572;10.170;2023-09-19T09:36:03;17.30;99.90
50606;DHT22;36557;53.572;10.170;2023-09-19T09:38:43;17.40;99.90
50606;DHT22;36557;53.572;10.170;2023-09-19T09:41:10;17.60;99.90
50606;DHT22;36557;53.572;10.170;2023-09-19T09:43:41;17.80;99.90
50606;DHT22;36557;53.572;10.170;2023-09-19T09:49:02;18.20;99.90
50606;DHT22;36557;53.572;10.170;2023-09-19T09:51:51;18.20;99.90
50606;DHT22;36557;53.572;10.170;2023-09-19T09:54:25;18.30;99.90
50606;DHT22;36557;53.572;10.170;2023-09-19T09:57:00;18.60;99.90
50606;DHT22;36557;53.572;10.170;2023-09-19T09:59:53;18.60;99.90
50606;DHT22;36557;53.572;10.170;2023-09-19T10:02:29;18.70;99.90
50606;DHT22;36557;53.572;10.170;2023-09-19T10:04:59;18.70;99.90
50606;DHT22;36557;53.572;10.170;2023-09-19T10:07:39;18.80;99.90
50606;DHT22;36557;53.572;10.170;2023-09-19T10:10:07;18.80;99.90
50606;DHT22;36557;53.572;10.170;2023-09-19T10:12:48;18.60;99.90
50606;DHT22;36557;53.572;10.170;2023-09-19T10:15:18;18.90;99.90
50606;DHT22;36557;53.572;10.170;2023-09-19T10:17:46;19.00;99.90
50606;DHT22;36557;53.572;10.170;2023-09-19T10:20:14;18.80;99.90
50606;DHT22;36557;53.572;10.170;2023-09-19T10:23:03;18.90;99.90
50606;DHT22;36557;53.572;10.170;2023-09-19T10:25:29;18.90;99.90
50606;DHT22;36557;53.572;10.170;2023-09-19T10:28:00;18.60;99.90
50606;DHT22;36557;53.572;10.170;2023-09-19T10:30:33;18.50;99.90
50606;DHT22;36557;53.572;10.170;2023-09-19T10:33:03;18.50;99.90
50606;DHT22;36557;53.572;10.170;2023-09-19T10:35:29;18.50;99.90
50606;DHT22;36557;53.572;10.170;2023-09-19T10:38:00;18.60;99.90
50606;DHT22;36557;53.572;10.170;2023-09-19T10:40:29;18.80;99.90
50606;DHT22;36557;53.572;10.170;2023-09-19T10:43:05;19.00;99.90
50606;DHT22;36557;53.572;10.170;2023-09-19T10:45:35;18.90;99.90
50606;DHT22;36557;53.572;10.170;2023-09-19T10:48:01;18.70;99.90
50606;DHT22;36557;53.572;10.170;2023-09-19T10:50:34;18.60;99.90
50606;DHT22;36557;53.572;10.170;2023-09-19T10:53:05;18.50;99.60
50606;DHT22;36557;53.572;10.170;2023-09-19T10:55:34;18.50;99.90
50606;DHT22;36557;53.572;10.170;2023-09-19T10:58:01;18.70;99.70
50606;DHT22;36557;53.572;10.170;2023-09-19T11:00:51;18.70;99.90
50606;DHT22;36557;53.572;10.170;2023-09-19T11:03:18;18.80;99.90
50606;DHT22;36557;53.572;10.170;2023-09-19T11:06:18;19.00;99.90
50606;DHT22;36557;53.572;10.170;2023-09-19T11:11:46;19.00;99.70
50606;DHT22;36557;53.572;10.170;2023-09-19T11:30:50;18.70;99.30
50606;DHT22;36557;53.572;10.170;2023-09-19T11:33:19;18.80;99.50
50606;DHT22;36557;53.572;10.170;2023-09-19T11:36:15;18.90;99.30
50606;DHT22;36557;53.572;10.170;2023-09-19T11:46:12;18.90;98.40
50606;DHT22;36557;53.572;10.170;2023-09-19T11:48:43;18.80;98.10
50606;DHT22;36557;53.572;10.170;2023-09-19T11:51:12;18.80;98.60
50606;DHT22;36557;53.572;10.170;2023-09-19T11:53:46;18.90;98.20
50606;DHT22;36557;53.572;10.170;2023-09-19T11:56:19;18.70;98.40
50606;DHT22;36557;53.572;10.170;2023-09-19T11:58:46;18.70;98.50
50606;DHT22;36557;53.572;10.170;2023-09-19T12:01:20;18.90;99.00
50606;DHT22;36557;53.572;10.170;2023-09-19T12:03:47;18.90;98.70
50606;DHT22;36557;53.572;10.170;2023-09-19T12:06:18;19.10;98.50
50606;DHT22;36557;53.572;10.170;2023-09-19T12:08:44;18.90;98.30
50606;DHT22;36557;53.572;10.170;2023-09-19T12:11:16;19.10;98.80
50606;DHT22;36557;53.572;10.170;2023-09-19T12:13:43;19.10;98.40
50606;DHT22;36557;53.572;10.170;2023-09-19T12:16:17;19.00;98.60
50606;DHT22;36557;53.572;10.170;2023-09-19T12:18:44;19.10;98.60
50606;DHT22;36557;53.572;10.170;2023-09-19T12:21:30;19.00;98.80
50606;DHT22;36557;53.572;10.170;2023-09-19T12:26:43;19.40;99.50
50606;DHT22;36557;53.572;10.170;2023-09-19T12:29:15;19.50;99.10
50606;DHT22;36557;53.572;10.170;2023-09-19T12:31:55;19.50;98.30
50606;DHT22;36557;53.572;10.170;2023-09-19T12:34:30;19.30;98.30
50606;DHT22;36557;53.572;10.170;2023-09-19T12:37:10;19.30;98.60
50606;DHT22;36557;53.572;10.170;2023-09-19T12:40:09;19.70;99.10
50606;DHT22;36557;53.572;10.170;2023-09-19T12:42:44;19.60;98.20
50606;DHT22;36557;53.572;10.170;2023-09-19T12:45:11;19.80;98.60
50606;DHT22;36557;53.572;10.170;2023-09-19T12:47:39;19.70;97.90
50606;DHT22;36557;53.572;10.170;2023-09-19T12:50:15;19.40;97.30
50606;DHT22;36557;53.572;10.170;2023-09-19T12:52:46;19.70;98.30
50606;DHT22;36557;53.572;10.170;2023-09-19T12:55:28;19.80;97.80
50606;DHT22;36557;53.572;10.170;2023-09-19T12:58:11;19.80;97.40
50606;DHT22;36557;53.572;10.170;2023-09-19T13:00:45;19.70;97.30
50606;DHT22;36557;53.572;10.170;2023-09-19T13:03:18;19.60;97.70
50606;DHT22;36557;53.572;10.170;2023-09-19T13:06:03;19.80;97.90
50606;DHT22;36557;53.572;10.170;2023-09-19T13:08:40;19.60;96.80
50606;DHT22;36557;53.572;10.170;2023-09-19T13:11:15;19.60;97.40
50606;DHT22;36557;53.572;10.170;2023-09-19T13:17:02;19.70;96.90
50606;DHT22;36557;53.572;10.170;2023-09-19T13:19:42;19.90;97.10
50606;DHT22;36557;53.572;10.170;2023-09-19T13:22:42;20.00;96.20
50606;DHT22;36557;53.572;10.170;2023-09-19T13:25:17;19.80;96.10
50606;DHT22;36557;53.572;10.170;2023-09-19T13:27:45;19.60;96.20
50606;DHT22;36557;53.572;10.170;2023-09-19T13:30:12;19.60;96.40
50606;DHT22;36557;53.572;10.170;2023-09-19T13:32:38;19.90;96.30
50606;DHT22;36557;53.572;10.170;2023-09-19T13:35:07;19.70;95.70
50606;DHT22;36557;53.572;10.170;2023-09-19T13:37:38;19.70;96.30
50606;DHT22;36557;53.572;10.170;2023-09-19T13:40:07;19.80;96.40
50606;DHT22;36557;53.572;10.170;2023-09-19T13:42:34;20.10;96.50
50606;DHT22;36557;53.572;10.170;2023-09-19T13:45:00;20.00;96.20
50606;DHT22;36557;53.572;10.170;2023-09-19T13:47:25;20.20;96.60
50606;DHT22;36557;53.572;10.170;2023-09-19T13:49:52;20.30;96.00
50606;DHT22;36557;53.572;10.170;2023-09-19T13:52:21;20.60;96.00
50606;DHT22;36557;53.572;10.170;2023-09-19T13:54:50;20.40;95.00
50606;DHT22;36557;53.572;10.170;2023-09-19T13:57:16;20.60;95.20
50606;DHT22;36557;53.572;10.170;2023-09-19T13:59:42;20.60;94.60
50606;DHT22;36557;53.572;10.170;2023-09-19T14:02:08;20.80;95.10
50606;DHT22;36557;53.572;10.170;2023-09-19T14:04:34;20.80;94.90
50606;DHT22;36557;53.572;10.170;2023-09-19T14:07:00;20.60;94.40
50606;DHT22;36557;53.572;10.170;2023-09-19T14:09:26;20.70;95.70
50606;DHT22;36557;53.572;10.170;2023-09-19T14:11:52;20.70;95.30
50606;DHT22;36557;53.572;10.170;2023-09-19T14:14:19;20.30;94.80
50606;DHT22;36557;53.572;10.170;2023-09-19T14:16:46;20.00;95.10
50606;DHT22;36557;53.572;10.170;2023-09-19T14:19:11;20.00;95.40
50606;DHT22;36557;53.572;10.170;2023-09-19T14:21:37;19.80;96.00
50606;DHT22;36557;53.572;10.170;2023-09-19T14:24:04;19.90;95.70
50606;DHT22;36557;53.572;10.170;2023-09-19T14:26:35;19.90;95.30
50606;DHT22;36557;53.572;10.170;2023-09-19T14:29:01;19.90;95.80
50606;DHT22;36557;53.572;10.170;2023-09-19T14:31:28;20.00;95.30
50606;DHT22;36557;53.572;10.170;2023-09-19T14:33:57;20.00;95.50
50606;DHT22;36557;53.572;10.170;2023-09-19T14:36:28;19.80;95.40
50606;DHT22;36557;53.572;10.170;2023-09-19T14:38:59;19.70;95.60
50606;DHT22;36557;53.572;10.170;2023-09-19T14:41:28;19.80;95.60
50606;DHT22;36557;53.572;10.170;2023-09-19T14:43:55;19.80;96.00
50606;DHT22;36557;53.572;10.170;2023-09-19T14:46:21;19.70;96.00
50606;DHT22;36557;53.572;10.170;2023-09-19T14:48:51;19.70;96.40
50606;DHT22;36557;53.572;10.170;2023-09-19T14:51:17;19.80;96.30
50606;DHT22;36557;53.572;10.170;2023-09-19T14:53:49;19.90;96.60
50606;DHT22;36557;53.572;10.170;2023-09-19T14:56:21;19.80;96.60
50606;DHT22;36557;53.572;10.170;2023-09-19T14:58:47;19.70;96.90
50606;DHT22;36557;53.572;10.170;2023-09-19T15:01:14;19.60;97.30
50606;DHT22;36557;53.572;10.170;2023-09-19T15:03:41;19.50;97.00
50606;DHT22;36557;53.572;10.170;2023-09-19T15:06:09;19.60;97.60
50606;DHT22;36557;53.572;10.170;2023-09-19T15:08:36;19.60;97.40
50606;DHT22;36557;53.572;10.170;2023-09-19T15:11:09;19.50;97.80
50606;DHT22;36557;53.572;10.170;2023-09-19T15:13:36;19.50;97.90
50606;DHT22;36557;53.572;10.170;2023-09-19T15:16:03;19.40;97.80
50606;DHT22;36557;53.572;10.170;2023-09-19T15:18:30;19.20;97.70
50606;DHT22;36557;53.572;10.170;2023-09-19T15:20:56;19.20;98.30
50606;DHT22;36557;53.572;10.170;2023-09-19T15:23:22;19.10;98.40
50606;DHT22;36557;53.572;10.170;2023-09-19T15:25:51;19.10;98.90
50606;DHT22;36557;53.572;10.170;2023-09-19T15:28:19;19.00;98.70
50606;DHT22;36557;53.572;10.170;2023-09-19T15:30:50;19.00;99.10
50606;DHT22;36557;53.572;10.170;2023-09-19T15:33:22;19.00;99.10
50606;DHT22;36557;53.572;10.170;2023-09-19T15:35:48;19.00;99.00
50606;DHT22;36557;53.572;10.170;2023-09-19T15:38:14;19.00;99.10
50606;DHT22;36557;53.572;10.170;2023-09-19T15:40:46;19.00;99.00
50606;DHT22;36557;53.572;10.170;2023-09-19T15:43:12;18.90;99.00
50606;DHT22;36557;53.572;10.170;2023-09-19T15:45:38;18.90;99.10
50606;DHT22;36557;53.572;10.170;2023-09-19T15:48:04;19.00;99.10
50606;DHT22;36557;53.572;10.170;2023-09-19T15:50:30;19.00;99.00
50606;DHT22;36557;53.572;10.170;2023-09-19T15:52:56;19.00;98.90
50606;DHT22;36557;53.572;10.170;2023-09-19T15:55:21;19.00;99.20
50606;DHT22;36557;53.572;10.170;2023-09-19T15:57:47;19.00;99.20
50606;DHT22;36557;53.572;10.170;2023-09-19T16:00:14;19.00;99.20
50606;DHT22;36557;53.572;10.170;2023-09-19T16:02:44;18.90;99.20
50606;DHT22;36557;53.572;10.170;2023-09-19T16:05:10;18.90;99.40
50606;DHT22;36557;53.572;10.170;2023-09-19T16:07:37;18.90;99.40
50606;DHT22;36557;53.572;10.170;2023-09-19T16:10:04;18.90;99.40
50606;DHT22;36557;53.572;10.170;2023-09-19T16:12:29;18.90;99.50
50606;DHT22;36557;53.572;10.170;2023-09-19T16:14:56;18.80;99.20
50606;DHT22;36557;53.572;10.170;2023-09-19T16:17:22;18.90;99.20
50606;DHT22;36557;53.572;10.170;2023-09-19T16:19:47;18.90;99.30
50606;DHT22;36557;53.572;10.170;2023-09-19T16:22:13;18.80;99.40
50606;DHT22;36557;53.572;10.170;2023-09-19T16:24:39;18.80;99.40
50606;DHT22;36557;53.572;10.170;2023-09-19T16:27:05;18.70;99.60
50606;DHT22;36557;53.572;10.170;2023-09-19T16:29:31;18.70;99.50
50606;DHT22;36557;53.572;10.170;2023-09-19T16:31:57;18.70;99.40
50606;DHT22;36557;53.572;10.170;2023-09-19T16:34:23;18.70;99.20
50606;DHT22;36557;53.572;10.170;2023-09-19T16:36:48;18.70;99.50
50606;DHT22;36557;53.572;10.170;2023-09-19T16:39:14;18.70;99.30
50606;DHT22;36557;53.572;10.170;2023-09-19T16:41:40;18.70;99.30
50606;DHT22;36557;53.572;10.170;2023-09-19T16:44:07;18.70;99.50
50606;DHT22;36557;53.572;10.170;2023-09-19T16:46:34;18.70;99.50
50606;DHT22;36557;53.572;10.170;2023-09-19T16:49:00;18.70;99.50
50606;DHT22;36557;53.572;10.170;2023-09-19T16:51:26;18.60;99.30
50606;DHT22;36557;53.572;10.170;2023-09-19T16:53:52;18.60;99.50
50606;DHT22;36557;53.572;10.170;2023-09-19T16:56:20;18.60;99.50
50606;DHT22;36557;53.572;10.170;2023-09-19T16:58:47;18.60;99.80
50606;DHT22;36557;53.572;10.170;2023-09-19T17:01:15;18.60;99.80
50606;DHT22;36557;53.572;10.170;2023-09-19T17:03:42;18.60;99.70
50606;DHT22;36557;53.572;10.170;2023-09-19T17:06:14;18.60;99.70
50606;DHT22;36557;53.572;10.170;2023-09-19T17:08:41;18.60;99.80
50606;DHT22;36557;53.572;10.170;2023-09-19T17:11:10;18.50;99.80
50606;DHT22;36557;53.572;10.170;2023-09-19T17:13:39;18.60;99.80
50606;DHT22;36557;53.572;10.170;2023-09-19T17:16:09;18.50;99.90
50606;DHT22;36557;53.572;10.170;2023-09-19T17:18:35;18.60;99.90
50606;DHT22;36557;53.572;10.170;2023-09-19T17:21:02;18.50;99.80
50606;DHT22;36557;53.572;10.170;2023-09-19T17:23:32;18.50;99.90
50606;DHT22;36557;53.572;10.170;2023-09-19T17:26:07;18.50;99.80
50606;DHT22;36557;53.572;10.170;2023-09-19T17:28:36;18.50;99.90
50606;DHT22;36557;53.572;10.170;2023-09-19T17:31:03;18.50;99.90
50606;DHT22;36557;53.572;10.170;2023-09-19T17:33:33;18.50;99.90
50606;DHT22;36557;53.572;10.170;2023-09-19T17:36:10;18.50;99.90
50606;DHT22;36557;53.572;10.170;2023-09-19T17:38:42;18.50;99.90
50606;DHT22;36557;53.572;10.170;2023-09-19T17:41:08;18.60;99.90
50606;DHT22;36557;53.572;10.170;2023-09-19T17:43:35;18.50;99.90
50606;DHT22;36557;53.572;10.170;2023-09-19T17:46:20;18.50;99.90
50606;DHT22;36557;53.572;10.170;2023-09-19T17:48:50;18.50;99.90
50606;DHT22;36557;53.572;10.170;2023-09-19T17:51:16;18.50;99.90
50606;DHT22;36557;53.572;10.170;2023-09-19T17:53:43;18.50;99.90
50606;DHT22;36557;53.572;10.170;2023-09-19T17:56:11;18.50;99.90
50606;DHT22;36557;53.572;10.170;2023-09-19T17:58:41;18.50;99.90
50606;DHT22;36557;53.572;10.170;2023-09-19T18:01:18;18.50;99.90
50606;DHT22;36557;53.572;10.170;2023-09-19T18:03:49;18.50;99.90
50606;DHT22;36557;53.572;10.170;2023-09-19T18:06:17;18.50;99.90
50606;DHT22;36557;53.572;10.170;2023-09-19T18:08:44;18.50;99.90
50606;DHT22;36557;53.572;10.170;2023-09-19T18:11:17;18.50;99.90
50606;DHT22;36557;53.572;10.170;2023-09-19T18:13:45;18.50;99.90
50606;DHT22;36557;53.572;10.170;2023-09-19T18:16:11;18.50;99.90
50606;DHT22;36557;53.572;10.170;2023-09-19T18:18:37;18.50;99.90
50606;DHT22;36557;53.572;10.170;2023-09-19T18:21:03;18.50;99.90
50606;DHT22;36557;53.572;10.170;2023-09-19T18:23:32;18.50;99.80
50606;DHT22;36557;53.572;10.170;2023-09-19T18:25:59;18.50;99.90
50606;DHT22;36557;53.572;10.170;2023-09-19T18:28:25;18.50;99.80
50606;DHT22;36557;53.572;10.170;2023-09-19T18:30:50;18.60;99.80
50606;DHT22;36557;53.572;10.170;2023-09-19T18:33:16;18.50;99.80
50606;DHT22;36557;53.572;10.170;2023-09-19T18:35:42;18.60;99.80
50606;DHT22;36557;53.572;10.170;2023-09-19T18:38:09;18.50;99.90
50606;DHT22;36557;53.572;10.170;2023-09-19T18:40:35;18.50;99.90
50606;DHT22;36557;53.572;10.170;2023-09-19T18:43:03;18.50;99.90
50606;DHT22;36557;53.572;10.170;2023-09-19T18:45:30;18.50;99.90
50606;DHT22;36557;53.572;10.170;2023-09-19T18:47:57;18.50;99.90
50606;DHT22;36557;53.572;10.170;2023-09-19T18:50:22;18.50;99.90
50606;DHT22;36557;53.572;10.170;2023-09-19T18:52:49;18.50;99.90
50606;DHT22;36557;53.572;10.170;2023-09-19T18:55:16;18.40;99.90
50606;DHT22;36557;53.572;10.170;2023-09-19T18:57:43;18.40;99.90
50606;DHT22;36557;53.572;10.170;2023-09-19T19:00:10;18.50;99.90
50606;DHT22;36557;53.572;10.170;2023-09-19T19:02:37;18.50;99.90
50606;DHT22;36557;53.572;10.170;2023-09-19T19:05:07;18.50;99.90
50606;DHT22;36557;53.572;10.170;2023-09-19T19:07:36;18.50;99.90
50606;DHT22;36557;53.572;10.170;2023-09-19T19:10:05;18.50;99.90
50606;DHT22;36557;53.572;10.170;2023-09-19T19:12:34;18.50;99.90
50606;DHT22;36557;53.572;10.170;2023-09-19T19:15:00;18.40;99.90
50606;DHT22;36557;53.572;10.170;2023-09-19T19:17:29;18.50;99.90
50606;DHT22;36557;53.572;10.170;2023-09-19T19:19:57;18.40;99.90
50606;DHT22;36557;53.572;10.170;2023-09-19T19:22:23;18.40;99.90
50606;DHT22;36557;53.572;10.170;2023-09-19T19:24:49;18.40;99.90
50606;DHT22;36557;53.572;10.170;2023-09-19T19:27:15;18.40;99.90
50606;DHT22;36557;53.572;10.170;2023-09-19T19:29:41;18.40;99.90
50606;DHT22;36557;53.572;10.170;2023-09-19T19:32:07;18.40;99.90
50606;DHT22;36557;53.572;10.170;2023-09-19T19:34:34;18.40;99.90
50606;DHT22;36557;53.572;10.170;2023-09-19T19:36:59;18.40;99.90
50606;DHT22;36557;53.572;10.170;2023-09-19T19:39:25;18.40;99.90
50606;DHT22;36557;53.572;10.170;2023-09-19T19:41:51;18.40;99.90
50606;DHT22;36557;53.572;10.170;2023-09-19T19:44:18;18.40;99.90
50606;DHT22;36557;53.572;10.170;2023-09-19T19:46:44;18.40;99.90
50606;DHT22;36557;53.572;10.170;2023-09-19T19:49:09;18.40;99.90